Gether, Virginia
Current Conditions -  °F | °C
As of 5:54 AM on Sunday 23 Nov 2014 (Local Time) from KOFP Reporting Station
Clear Clear  
Wind Chill: 35°   Ceiling: Unl
Heat Index: 39°   Visibility: 10mi
Dew Point: 19°   Wind: 6mph
Humidity: 45%   Direction: 200°SSW
Pressure: 30.27"   Gusts: NA
Location:  37.969°N, 77.2743°W
Report Text: KOFP 231054Z AUTO 20005KT 10SM CLR 04/M07 A3027 RMK AO2 SLP251 T00391072
Loading
Personal Weather Stations






























Interactive Weather Map New forecast layout! Learn more

10-Day Weather Forecast

Advertisements
Track Severe Weather on mobile